Time;durP1;ratioP1;P1;durP2;ratioP2;P2;SDS_P1;SDS_P2;PMS_P1;PMS_P2;Temp;Humidity;BMP_temperature;BMP_pressure;BME280_temperature;BME280_humidity;BME280_pressure;Samples;Min_cycle;Max_cycle;Signal;HPM_P1;HPM_P2
2022/06/22 00:00:35;;;;;;;2.72;1.60;;;;;;;;;;4901639;29;20032;-80
2022/06/22 00:03:06;;;;;;;2.72;1.65;;;;;;;;;;4884651;29;20446;-80
2022/06/22 00:05:40;;;;;;;2.28;1.52;;;;;;;;;;4884322;29;20024;-80
2022/06/22 00:08:08;;;;;;;3.38;1.63;;;;;;;;;;4884290;29;20044;-80
2022/06/22 00:10:37;;;;;;;2.22;1.58;;;;;;;;;;4884362;29;20028;-80
2022/06/22 00:13:05;;;;;;;2.97;1.60;;;;;;;;;;4883826;29;20036;-80
2022/06/22 00:15:39;;;;;;;2.03;1.42;;;;;;;;;;4884280;29;20036;-80
2022/06/22 00:18:24;;;;;;;1.98;1.40;;;;;;;;;;4884162;29;20032;-80
2022/06/22 00:20:51;;;;;;;2.58;1.40;;;;;;;;;;4884754;29;20041;-80
2022/06/22 00:23:25;;;;;;;3.45;1.80;;;;;;;;;;4884211;29;20550;-81
2022/06/22 00:25:51;;;;;;;2.70;1.70;;;;;;;;;;4884168;29;20035;-79
2022/06/22 00:28:35;;;;;;;3.67;1.90;;;;;;;;;;4902861;29;20032;-79
2022/06/22 00:31:13;;;;;;;2.90;1.90;;;;;;;;;;4914373;29;20033;-81
2022/06/22 00:34:00;;;;;;;3.50;2.45;;;;;;;;;;4884284;29;20036;-80
2022/06/22 00:36:28;;;;;;;3.63;2.15;;;;;;;;;;4884475;29;20029;-82
2022/06/22 00:38:54;;;;;;;3.25;2.28;;;;;;;;;;4884140;29;20028;-81
2022/06/22 00:41:25;;;;;;;5.13;2.30;;;;;;;;;;4884338;29;20032;-81
2022/06/22 00:43:55;;;;;;;4.32;2.30;;;;;;;;;;4883983;29;20060;-79
2022/06/22 00:46:22;;;;;;;3.65;2.17;;;;;;;;;;4901030;29;20032;-82
2022/06/22 00:48:50;;;;;;;3.67;2.30;;;;;;;;;;4900706;29;20478;-79
2022/06/22 00:51:18;;;;;;;4.40;2.20;;;;;;;;;;4883825;29;20033;-81
2022/06/22 00:53:58;;;;;;;3.65;2.40;;;;;;;;;;4883736;29;20041;-80
2022/06/22 00:56:27;;;;;;;3.10;2.13;;;;;;;;;;4883742;29;20027;-80
2022/06/22 00:59:06;;;;;;;4.65;2.13;;;;;;;;;;4883741;29;20039;-79
2022/06/22 01:01:33;;;;;;;3.22;2.17;;;;;;;;;;4883813;29;20505;-81
2022/06/22 01:04:17;;;;;;;4.63;2.40;;;;;;;;;;4884139;29;20029;-80
2022/06/22 01:06:53;;;;;;;2.92;2.00;;;;;;;;;;4883393;29;20063;-82
2022/06/22 01:09:37;;;;;;;4.43;2.20;;;;;;;;;;4884413;29;20062;-81
2022/06/22 01:12:23;;;;;;;2.53;1.90;;;;;;;;;;4883396;29;20549;-80
2022/06/22 01:15:00;;;;;;;3.47;2.13;;;;;;;;;;4883217;29;20390;-78
2022/06/22 01:17:37;;;;;;;3.72;2.30;;;;;;;;;;4883244;29;20033;-79
2022/06/22 01:20:04;;;;;;;3.22;2.00;;;;;;;;;;4883324;29;20036;-79
2022/06/22 01:22:42;;;;;;;3.15;2.03;;;;;;;;;;4883185;29;20393;-79
2022/06/22 01:25:20;;;;;;;4.07;2.38;;;;;;;;;;4882384;29;20039;-80
2022/06/22 01:27:47;;;;;;;2.90;2.20;;;;;;;;;;4883814;29;20040;-78
2022/06/22 01:30:31;;;;;;;3.15;2.13;;;;;;;;;;4883278;29;20482;-79
2022/06/22 01:33:00;;;;;;;3.35;2.35;;;;;;;;;;4883125;29;20021;-79
2022/06/22 01:35:29;;;;;;;3.58;2.13;;;;;;;;;;4882946;29;20076;-80
2022/06/22 01:37:55;;;;;;;4.65;2.20;;;;;;;;;;4883044;29;20028;-79
2022/06/22 01:40:23;;;;;;;3.05;1.90;;;;;;;;;;4882948;29;20032;-80
2022/06/22 01:42:49;;;;;;;2.88;1.92;;;;;;;;;;4882719;29;20065;-79
2022/06/22 01:45:15;;;;;;;3.17;2.03;;;;;;;;;;4882621;29;20468;-80
2022/06/22 01:47:48;;;;;;;3.80;1.98;;;;;;;;;;4883723;29;20024;-80
2022/06/22 01:50:18;;;;;;;4.43;2.20;;;;;;;;;;4882413;29;20465;-78
2022/06/22 01:52:57;;;;;;;3.10;2.10;;;;;;;;;;4899589;29;20059;-78
2022/06/22 01:55:30;;;;;;;3.63;2.00;;;;;;;;;;4882709;29;20033;-79
2022/06/22 01:58:14;;;;;;;4.25;2.10;;;;;;;;;;4882676;29;20116;-78
2022/06/22 02:00:43;;;;;;;2.88;2.00;;;;;;;;;;4899262;29;20029;-79
2022/06/22 02:03:14;;;;;;;3.10;2.10;;;;;;;;;;4882722;29;20033;-80
2022/06/22 02:05:50;;;;;;;3.47;2.10;;;;;;;;;;4882234;29;20055;-80
2022/06/22 02:08:22;;;;;;;3.13;2.00;;;;;;;;;;4881631;29;20033;-79
2022/06/22 02:11:01;;;;;;;4.47;1.88;;;;;;;;;;4882203;29;20036;-80
2022/06/22 02:13:31;;;;;;;3.38;2.00;;;;;;;;;;4882301;29;20037;-81
2022/06/22 02:16:00;;;;;;;3.28;1.83;;;;;;;;;;4882134;29;20048;-79
2022/06/22 02:18:47;;;;;;;2.20;1.65;;;;;;;;;;4881950;29;20107;-79
2022/06/22 02:21:19;;;;;;;3.72;1.90;;;;;;;;;;4881711;29;20371;-82
2022/06/22 02:23:47;;;;;;;4.13;1.70;;;;;;;;;;4882193;29;20028;-82
2022/06/22 02:26:17;;;;;;;2.63;1.80;;;;;;;;;;4882003;29;20020;-82
2022/06/22 02:28:44;;;;;;;2.22;1.73;;;;;;;;;;4882034;29;20037;-81
2022/06/22 02:31:10;;;;;;;3.60;1.60;;;;;;;;;;4882056;29;20060;-82
2022/06/22 02:33:39;;;;;;;2.78;1.75;;;;;;;;;;4899052;29;20389;-82
2022/06/22 02:36:05;;;;;;;2.63;1.95;;;;;;;;;;4881738;29;20032;-81
2022/06/22 02:38:31;;;;;;;3.10;1.67;;;;;;;;;;4881997;29;20073;-80
2022/06/22 02:46:33;;;;;;;2.30;1.80;;;;;;;;;;4898683;29;20092;-81
2022/06/22 02:49:06;;;;;;;4.05;1.77;;;;;;;;;;4881684;29;20088;-80
2022/06/22 02:51:36;;;;;;;3.13;1.60;;;;;;;;;;4882147;29;20029;-83
2022/06/22 02:54:04;;;;;;;3.65;1.83;;;;;;;;;;4880571;29;20037;-81
2022/06/22 02:56:39;;;;;;;2.05;1.50;;;;;;;;;;4881873;29;20096;-78
2022/06/22 02:59:07;;;;;;;2.50;1.70;;;;;;;;;;4882132;29;20466;-77
2022/06/22 03:01:34;;;;;;;2.65;1.50;;;;;;;;;;4881979;29;20031;-80
2022/06/22 03:04:04;;;;;;;3.40;1.63;;;;;;;;;;4866396;29;20125;-82
2022/06/22 03:06:33;;;;;;;2.67;1.90;;;;;;;;;;4881490;29;20117;-80
2022/06/22 03:09:01;;;;;;;4.60;1.70;;;;;;;;;;4881674;29;20040;-81
2022/06/22 03:11:28;;;;;;;3.05;1.90;;;;;;;;;;4881677;29;20061;-79
2022/06/22 03:14:13;;;;;;;3.60;1.80;;;;;;;;;;4881562;29;20470;-80
2022/06/22 03:16:41;;;;;;;3.67;1.67;;;;;;;;;;4898311;29;20497;-82
2022/06/22 03:19:12;;;;;;;3.78;1.83;;;;;;;;;;4881501;29;20025;-81
2022/06/22 03:21:39;;;;;;;3.90;2.03;;;;;;;;;;4881562;29;20439;-81
2022/06/22 03:24:20;;;;;;;3.35;1.90;;;;;;;;;;4898346;29;20033;-80
2022/06/22 03:26:51;;;;;;;3.35;1.88;;;;;;;;;;4881561;29;20024;-81
2022/06/22 03:29:17;;;;;;;3.10;1.65;;;;;;;;;;4881593;29;20120;-81
2022/06/22 03:31:46;;;;;;;3.25;1.58;;;;;;;;;;4881473;29;20029;-80
2022/06/22 03:34:18;;;;;;;2.42;1.60;;;;;;;;;;4898265;29;20071;-81
2022/06/22 03:36:50;;;;;;;10.25;1.65;;;;;;;;;;4881345;29;20075;-82
2022/06/22 03:39:18;;;;;;;2.65;1.60;;;;;;;;;;4881421;29;20033;-81
2022/06/22 03:41:47;;;;;;;2.58;1.58;;;;;;;;;;4881372;29;20025;-80
2022/06/22 03:44:13;;;;;;;3.95;1.70;;;;;;;;;;4881299;29;20031;-81
2022/06/22 03:46:47;;;;;;;2.78;1.50;;;;;;;;;;4898085;29;20037;-81
2022/06/22 03:49:34;;;;;;;1.92;1.50;;;;;;;;;;4883290;29;20123;-80
2022/06/22 03:52:01;;;;;;;3.15;1.50;;;;;;;;;;4885364;29;20119;-82
2022/06/22 03:54:27;;;;;;;4.00;1.45;;;;;;;;;;4884751;29;20115;-80
2022/06/22 03:56:55;;;;;;;3.67;1.70;;;;;;;;;;4901730;29;20031;-81
2022/06/22 03:59:22;;;;;;;2.97;1.60;;;;;;;;;;4884850;29;20107;-80
2022/06/22 04:01:48;;;;;;;3.05;1.48;;;;;;;;;;4884698;29;20024;-79
2022/06/22 04:04:14;;;;;;;2.65;1.77;;;;;;;;;;4884587;29;20032;-78
2022/06/22 04:06:48;;;;;;;2.25;1.50;;;;;;;;;;4884255;29;20056;-79
2022/06/22 04:09:14;;;;;;;;;;;;;;;;;;4884959;29;20044;-79
2022/06/22 04:11:58;;;;;;;2.95;1.60;;;;;;;;;;4901489;29;19915;-80
2022/06/22 04:14:36;;;;;;;2.70;1.73;;;;;;;;;;4884313;29;20492;-80
2022/06/22 04:17:04;;;;;;;3.85;1.60;;;;;;;;;;4884427;29;20052;-80
2022/06/22 04:19:42;;;;;;;2.65;1.52;;;;;;;;;;4884316;29;20112;-81
2022/06/22 04:22:14;;;;;;;2.67;1.50;;;;;;;;;;4884049;29;20037;-80
2022/06/22 04:24:46;;;;;;;2.27;1.40;;;;;;;;;;4884239;29;20033;-80
2022/06/22 04:27:30;;;;;;;2.15;1.42;;;;;;;;;;4883962;29;20654;-80
2022/06/22 04:30:05;;;;;;;4.97;2.22;;;;;;;;;;4884044;29;20124;-80
2022/06/22 04:32:37;;;;;;;1.92;1.27;;;;;;;;;;4884935;29;20028;-88
2022/06/22 04:35:03;;;;;;;3.42;1.42;;;;;;;;;;4884007;29;20032;-80
2022/06/22 04:37:36;;;;;;;3.08;1.38;;;;;;;;;;4900956;29;20024;-80
2022/06/22 04:40:29;;;;;;;2.92;1.60;;;;;;;;;;4902037;29;20036;-80
2022/06/22 04:42:58;;;;;;;3.38;1.63;;;;;;;;;;4897820;29;20043;-81
2022/06/22 04:45:27;;;;;;;2.25;1.30;;;;;;;;;;4883972;29;20390;-80
2022/06/22 04:47:54;;;;;;;7.35;1.52;;;;;;;;;;4884368;29;20033;-82
2022/06/22 04:50:20;;;;;;;3.40;1.40;;;;;;;;;;4883836;29;20461;-80
2022/06/22 04:52:50;;;;;;;4.28;1.40;;;;;;;;;;4883802;29;20036;-79
2022/06/22 04:55:18;;;;;;;3.17;1.40;;;;;;;;;;4883359;29;20502;-81
2022/06/22 04:57:47;;;;;;;5.13;1.35;;;;;;;;;;4884368;29;20029;-79
2022/06/22 05:00:18;;;;;;;2.80;1.30;;;;;;;;;;4883447;29;20504;-82
2022/06/22 05:02:46;;;;;;;3.15;1.30;;;;;;;;;;4884906;29;20359;-81
2022/06/22 05:05:21;;;;;;;6.03;1.50;;;;;;;;;;4881340;29;20048;-79
2022/06/22 05:07:55;;;;;;;2.58;1.17;;;;;;;;;;4867383;29;20103;-79
2022/06/22 05:10:41;;;;;;;3.08;1.10;;;;;;;;;;4891247;29;20037;-79
2022/06/22 05:13:18;;;;;;;1.90;1.00;;;;;;;;;;4891345;29;20013;-80
2022/06/22 05:15:46;;;;;;;3.58;1.10;;;;;;;;;;4872041;29;20025;-79
2022/06/22 05:18:18;;;;;;;3.33;1.20;;;;;;;;;;4867303;29;20048;-80
2022/06/22 05:20:47;;;;;;;2.20;0.80;;;;;;;;;;4874637;29;20025;-77
2022/06/22 05:23:16;;;;;;;2.67;0.95;;;;;;;;;;4875825;29;20061;-79
2022/06/22 05:25:44;;;;;;;3.80;1.25;;;;;;;;;;4874391;29;20048;-80
2022/06/22 05:28:17;;;;;;;4.05;1.00;;;;;;;;;;4873965;29;20466;-82
2022/06/22 05:30:47;;;;;;;5.82;1.02;;;;;;;;;;4891011;29;20104;-81
2022/06/22 05:33:15;;;;;;;2.58;0.95;;;;;;;;;;4873124;29;20055;-81
2022/06/22 05:35:43;;;;;;;2.70;0.77;;;;;;;;;;4874848;29;20021;-83
2022/06/22 05:38:10;;;;;;;2.03;0.90;;;;;;;;;;4899895;29;20028;-77
2022/06/22 05:40:39;;;;;;;2.50;0.98;;;;;;;;;;4865993;29;20037;-86
2022/06/22 05:43:06;;;;;;;3.80;0.88;;;;;;;;;;4864414;29;20028;-79
2022/06/22 05:45:37;;;;;;;2.42;0.70;;;;;;;;;;4864042;29;20033;-80
2022/06/22 05:48:04;;;;;;;1.98;0.80;;;;;;;;;;4864015;29;20029;-80
2022/06/22 05:50:48;;;;;;;3.28;0.80;;;;;;;;;;4863980;29;20048;-80
2022/06/22 05:53:18;;;;;;;2.83;0.93;;;;;;;;;;4879622;29;20037;-80
2022/06/22 05:55:50;;;;;;;2.47;0.70;;;;;;;;;;4882154;29;20029;-80
2022/06/22 05:58:23;;;;;;;2.80;0.80;;;;;;;;;;4882353;29;20029;-80
2022/06/22 06:00:51;;;;;;;1.85;0.80;;;;;;;;;;4882709;29;20072;-80
2022/06/22 06:03:36;;;;;;;2.20;0.85;;;;;;;;;;4899098;29;20044;-82
2022/06/22 06:06:08;;;;;;;1.05;0.40;;;;;;;;;;4882138;29;20051;-80
2022/06/22 06:08:45;;;;;;;3.17;0.50;;;;;;;;;;4882281;29;20045;-82
2022/06/22 06:11:32;;;;;;;1.38;0.40;;;;;;;;;;4881624;29;20065;-82
2022/06/22 06:14:01;;;;;;;2.08;0.73;;;;;;;;;;4872528;29;20075;-80
2022/06/22 06:16:30;;;;;;;3.30;0.60;;;;;;;;;;4880168;29;20040;-80
2022/06/22 06:18:58;;;;;;;2.88;0.50;;;;;;;;;;4873205;29;20033;-81
2022/06/22 06:21:28;;;;;;;3.38;0.60;;;;;;;;;;4873318;29;20029;-80
2022/06/22 06:24:13;;;;;;;1.30;0.50;;;;;;;;;;4871566;29;20042;-79
2022/06/22 06:29:32;;;;;;;1.25;0.43;;;;;;;;;;4880138;29;20092;-80
2022/06/22 06:32:10;;;;;;;1.42;0.45;;;;;;;;;;4863304;29;20021;-80
2022/06/22 06:34:40;;;;;;;1.38;0.40;;;;;;;;;;4865279;29;20398;-79
2022/06/22 06:37:18;;;;;;;1.17;0.47;;;;;;;;;;4879870;29;20029;-79
2022/06/22 06:39:45;;;;;;;1.27;0.50;;;;;;;;;;4879911;29;20513;-79
2022/06/22 06:42:36;;;;;;;1.67;0.50;;;;;;;;;;4863502;29;20033;-80
2022/06/22 06:45:02;;;;;;;2.78;0.60;;;;;;;;;;4879984;29;20092;-79
2022/06/22 06:47:38;;;;;;;1.27;0.50;;;;;;;;;;4879902;29;20025;-85
2022/06/22 06:50:07;;;;;;;1.40;0.40;;;;;;;;;;4863546;29;20037;-84
2022/06/22 06:52:36;;;;;;;1.00;0.30;;;;;;;;;;4863276;29;20112;-85
2022/06/22 06:55:23;;;;;;;2.60;0.50;;;;;;;;;;4863420;29;20033;-83
2022/06/22 06:57:55;;;;;;;1.63;0.50;;;;;;;;;;4869385;29;20394;-86
2022/06/22 07:00:22;;;;;;;2.28;0.60;;;;;;;;;;4881965;29;20029;-84
2022/06/22 07:02:49;;;;;;;4.13;0.57;;;;;;;;;;4882277;29;20501;-84
2022/06/22 07:05:16;;;;;;;3.03;0.57;;;;;;;;;;4882042;29;20109;-86
2022/06/22 07:07:55;;;;;;;1.35;0.50;;;;;;;;;;4881668;29;20053;-87
2022/06/22 07:10:27;;;;;;;7.03;0.68;;;;;;;;;;4881892;29;20516;-86
2022/06/22 07:12:53;;;;;;;2.13;0.60;;;;;;;;;;4881938;29;20024;-85
2022/06/22 07:15:22;;;;;;;2.65;0.50;;;;;;;;;;4898949;29;20073;-84
2022/06/22 07:17:50;;;;;;;2.60;0.68;;;;;;;;;;4899010;29;20028;-84
2022/06/22 07:20:17;;;;;;;1.90;0.55;;;;;;;;;;4881989;29;20028;-85
2022/06/22 07:22:59;;;;;;;1.23;0.55;;;;;;;;;;4881868;29;20100;-86
2022/06/22 07:25:34;;;;;;;2.13;0.40;;;;;;;;;;4885649;29;20088;-85
2022/06/22 07:28:19;;;;;;;3.42;0.60;;;;;;;;;;4902509;29;20037;-85
2022/06/22 07:31:13;;;;;;;2.75;0.60;;;;;;;;;;4885720;29;20520;-86
2022/06/22 07:33:43;;;;;;;1.65;0.50;;;;;;;;;;4885887;29;20032;-84
2022/06/22 07:36:15;;;;;;;1.65;0.43;;;;;;;;;;4889601;29;20055;-84
2022/06/22 07:38:47;;;;;;;1.45;0.57;;;;;;;;;;4885319;29;20096;-76
2022/06/22 07:41:18;;;;;;;1.50;0.50;;;;;;;;;;4884847;29;20039;-78
2022/06/22 07:43:45;;;;;;;0.85;0.38;;;;;;;;;;4875521;29;20037;-79
2022/06/22 07:46:15;;;;;;;1.67;0.57;;;;;;;;;;4866182;29;20494;-79
2022/06/22 07:48:42;;;;;;;2.53;0.40;;;;;;;;;;4866205;29;20487;-81
2022/06/22 07:51:12;;;;;;;2.08;0.50;;;;;;;;;;4865970;29;20036;-77
2022/06/22 07:53:51;;;;;;;1.40;0.40;;;;;;;;;;4866177;29;20067;-78
2022/06/22 07:56:22;;;;;;;1.58;0.60;;;;;;;;;;4866065;29;20055;-78
2022/06/22 07:58:50;;;;;;;1.73;0.43;;;;;;;;;;4866064;29;20061;-82
2022/06/22 08:01:20;;;;;;;1.20;0.40;;;;;;;;;;4882732;29;20039;-79
2022/06/22 08:04:02;;;;;;;2.90;0.82;;;;;;;;;;4866163;29;20025;-76
2022/06/22 08:06:34;;;;;;;2.70;0.55;;;;;;;;;;4865701;29;20060;-82
2022/06/22 08:09:06;;;;;;;1.30;0.50;;;;;;;;;;4865927;29;20033;-82
2022/06/22 08:11:36;;;;;;;2.85;0.60;;;;;;;;;;4865742;29;20025;-77
2022/06/22 08:14:08;;;;;;;3.42;0.65;;;;;;;;;;4865725;29;20100;-77
2022/06/22 08:16:37;;;;;;;2.20;0.60;;;;;;;;;;4865710;29;20056;-79
2022/06/22 08:19:04;;;;;;;3.80;0.60;;;;;;;;;;4865650;29;20029;-79
2022/06/22 08:21:31;;;;;;;1.92;0.60;;;;;;;;;;4865640;29;20372;-78
2022/06/22 08:23:58;;;;;;;1.67;0.50;;;;;;;;;;4865657;29;20116;-81
2022/06/22 08:26:33;;;;;;;2.65;0.40;;;;;;;;;;4882443;29;20154;-78
2022/06/22 08:29:00;;;;;;;1.75;0.57;;;;;;;;;;4882496;29;20029;-79
2022/06/22 08:31:31;;;;;;;1.70;0.40;;;;;;;;;;4865659;29;20029;-79
2022/06/22 08:34:01;;;;;;;2.73;0.70;;;;;;;;;;4865082;29;20029;-79
2022/06/22 08:36:42;;;;;;;2.92;0.50;;;;;;;;;;4868241;29;20025;-80
2022/06/22 08:39:09;;;;;;;1.40;0.60;;;;;;;;;;4875166;29;20029;-79
2022/06/22 08:41:44;;;;;;;1.58;0.50;;;;;;;;;;4883316;29;20200;-79
2022/06/22 08:44:11;;;;;;;1.60;0.47;;;;;;;;;;4865460;29;20467;-79
2022/06/22 08:46:45;;;;;;;1.95;0.60;;;;;;;;;;4865508;29;20021;-80
2022/06/22 08:49:27;;;;;;;1.35;0.50;;;;;;;;;;4865088;29;20052;-80
2022/06/22 08:52:00;;;;;;;2.15;0.52;;;;;;;;;;4865062;29;20120;-79
2022/06/22 08:54:45;;;;;;;1.00;0.40;;;;;;;;;;4881723;29;20033;-80
2022/06/22 08:57:26;;;;;;;2.40;0.60;;;;;;;;;;4864945;29;20509;-80
2022/06/22 08:59:55;;;;;;;2.47;0.30;;;;;;;;;;4865033;29;20029;-82
2022/06/22 09:02:21;;;;;;;2.42;0.50;;;;;;;;;;4866065;29;20151;-76
2022/06/22 09:04:51;;;;;;;1.73;0.55;;;;;;;;;;4872217;29;20517;-79
2022/06/22 09:07:27;;;;;;;1.70;0.40;;;;;;;;;;4890291;29;20055;-80
2022/06/22 09:10:11;;;;;;;2.55;0.50;;;;;;;;;;4890415;29;20043;-79
2022/06/22 09:12:58;;;;;;;2.22;0.60;;;;;;;;;;4873672;29;20035;-80
2022/06/22 09:15:24;;;;;;;1.55;0.47;;;;;;;;;;4860964;29;20040;-79
2022/06/22 09:17:50;;;;;;;3.42;0.50;;;;;;;;;;4890552;29;20033;-79
2022/06/22 09:20:34;;;;;;;2.40;0.63;;;;;;;;;;4890176;29;20051;-81
2022/06/22 09:23:04;;;;;;;1.83;0.50;;;;;;;;;;4890207;29;20160;-81
2022/06/22 09:25:33;;;;;;;2.13;0.57;;;;;;;;;;4887813;29;20402;-81
2022/06/22 09:28:04;;;;;;;1.75;0.50;;;;;;;;;;4868211;29;20029;-79
2022/06/22 09:30:49;;;;;;;2.20;0.63;;;;;;;;;;4864431;29;20040;-82
2022/06/22 09:33:33;;;;;;;1.50;0.55;;;;;;;;;;4881271;29;20029;-83
2022/06/22 09:36:18;;;;;;;2.47;0.55;;;;;;;;;;4864229;29;20112;-81
2022/06/22 09:38:47;;;;;;;1.50;0.50;;;;;;;;;;4864183;29;20442;-81
2022/06/22 09:41:32;;;;;;;2.45;0.50;;;;;;;;;;4864503;29;20069;-83
2022/06/22 09:44:10;;;;;;;2.25;0.65;;;;;;;;;;4864165;29;20025;-82
2022/06/22 09:46:37;;;;;;;1.67;0.57;;;;;;;;;;4863373;29;20060;-84
2022/06/22 09:49:03;;;;;;;1.02;0.43;;;;;;;;;;4863868;29;20040;-82
2022/06/22 09:51:52;;;;;;;1.60;0.60;;;;;;;;;;4880898;29;20069;-83
2022/06/22 09:57:09;;;;;;;3.38;0.73;;;;;;;;;;4880874;29;20084;-83
2022/06/22 10:00:11;;;;;;;2.17;0.57;;;;;;;;;;4863895;29;20045;-82
2022/06/22 10:02:37;;;;;;;1.70;0.63;;;;;;;;;;4823725;29;20103;-82
2022/06/22 10:05:16;;;;;;;2.75;0.63;;;;;;;;;;4852597;29;20037;-83
2022/06/22 10:08:01;;;;;;;3.65;0.80;;;;;;;;;;4863607;29;20060;-83
2022/06/22 10:10:27;;;;;;;1.95;0.60;;;;;;;;;;4863924;29;20035;-81
2022/06/22 10:13:12;;;;;;;2.95;0.52;;;;;;;;;;4881513;29;20025;-81
2022/06/22 10:15:47;;;;;;;2.85;0.60;;;;;;;;;;4863560;29;20025;-83
2022/06/22 10:18:27;;;;;;;1.67;0.60;;;;;;;;;;4862831;29;20036;-81
2022/06/22 10:21:05;;;;;;;1.40;0.60;;;;;;;;;;4884790;29;20036;-79
2022/06/22 10:23:35;;;;;;;2.78;0.60;;;;;;;;;;4872180;29;20031;-79
2022/06/22 10:26:16;;;;;;;2.00;0.50;;;;;;;;;;4871937;29;20615;-80
2022/06/22 10:29:09;;;;;;;2.97;0.73;;;;;;;;;;4872216;29;20482;-80
2022/06/22 10:31:47;;;;;;;2.60;0.80;;;;;;;;;;4866926;29;20080;-79
2022/06/22 10:34:31;;;;;;;1.63;0.75;;;;;;;;;;4888996;29;20040;-80
2022/06/22 10:37:23;;;;;;;3.25;0.82;;;;;;;;;;4889040;29;20033;-82
2022/06/22 10:40:03;;;;;;;1.67;0.70;;;;;;;;;;4860560;29;20045;-81
2022/06/22 10:45:29;;;;;;;3.78;1.00;;;;;;;;;;4880364;29;20098;-81
2022/06/22 10:48:14;;;;;;;4.72;1.00;;;;;;;;;;4868130;29;20120;-80
2022/06/22 10:50:46;;;;;;;2.70;1.20;;;;;;;;;;4870433;29;20029;-82
2022/06/22 10:53:24;;;;;;;3.67;1.08;;;;;;;;;;4865513;29;20040;-79
2022/06/22 10:56:01;;;;;;;2.75;0.90;;;;;;;;;;4875681;29;20039;-79
2022/06/22 10:58:31;;;;;;;4.13;1.25;;;;;;;;;;4870985;29;20060;-80
2022/06/22 11:01:15;;;;;;;2.78;1.05;;;;;;;;;;4871351;29;20107;-80
2022/06/22 11:03:57;;;;;;;2.65;1.05;;;;;;;;;;4863105;29;20052;-74
2022/06/22 11:06:42;;;;;;;2.58;0.88;;;;;;;;;;4873569;29;20406;-81
2022/06/22 11:09:08;;;;;;;3.50;1.10;;;;;;;;;;4873001;29;20116;-78
2022/06/22 11:11:49;;;;;;;2.40;0.88;;;;;;;;;;4881337;29;20040;-80
2022/06/22 11:14:15;;;;;;;2.10;1.00;;;;;;;;;;4881522;29;20032;-81
2022/06/22 11:16:41;;;;;;;2.78;1.13;;;;;;;;;;4881550;29;20025;-80
2022/06/22 11:19:19;;;;;;;1.75;1.10;;;;;;;;;;4881349;29;20041;-79
2022/06/22 11:22:00;;;;;;;3.05;1.23;;;;;;;;;;4869439;29;20029;-80
2022/06/22 11:24:45;;;;;;;1.95;1.02;;;;;;;;;;4873063;29;20446;-81
2022/06/22 11:33:14;;;;;;;2.60;1.13;;;;;;;;;;4897038;29;20063;-82
2022/06/22 11:35:40;;;;;;;1.83;1.00;;;;;;;;;;4878258;29;20025;-82
2022/06/22 11:38:16;;;;;;;3.22;1.00;;;;;;;;;;4871846;29;20025;-81
2022/06/22 11:40:45;;;;;;;2.47;1.13;;;;;;;;;;4871569;29;20037;-79
2022/06/22 11:43:23;;;;;;;3.75;0.98;;;;;;;;;;4864284;29;20489;-77
2022/06/22 11:46:05;;;;;;;4.60;1.20;;;;;;;;;;4872559;29;20040;-78
2022/06/22 11:48:31;;;;;;;2.22;1.05;;;;;;;;;;4867399;29;20040;-78
2022/06/22 11:51:03;;;;;;;2.85;1.13;;;;;;;;;;4877203;29;20032;-79
2022/06/22 11:53:32;;;;;;;3.83;1.07;;;;;;;;;;4881152;29;20088;-80
2022/06/22 11:56:01;;;;;;;3.58;1.00;;;;;;;;;;4881149;29;20112;-80
2022/06/22 11:58:46;;;;;;;3.28;0.90;;;;;;;;;;4882495;29;20035;-83
2022/06/22 12:01:31;;;;;;;1.98;0.90;;;;;;;;;;4880911;29;20557;-80
2022/06/22 12:04:16;;;;;;;2.08;1.10;;;;;;;;;;4897944;29;20028;-82
2022/06/22 12:06:52;;;;;;;4.13;0.90;;;;;;;;;;4874179;29;20053;-82
2022/06/22 12:09:33;;;;;;;2.50;0.95;;;;;;;;;;4870839;29;20017;-78
2022/06/22 12:12:17;;;;;;;3.05;1.00;;;;;;;;;;4896317;29;20025;-80
2022/06/22 12:15:10;;;;;;;4.03;1.40;;;;;;;;;;4876289;29;20025;-82
2022/06/22 12:17:55;;;;;;;2.78;1.13;;;;;;;;;;4875617;29;20064;-81
2022/06/22 12:20:25;;;;;;;2.38;0.80;;;;;;;;;;4880536;29;20435;-81
2022/06/22 12:23:05;;;;;;;3.30;1.10;;;;;;;;;;4880900;29;20017;-81
2022/06/22 12:25:31;;;;;;;2.95;1.00;;;;;;;;;;4890028;29;20047;-82
2022/06/22 12:28:16;;;;;;;2.80;1.05;;;;;;;;;;4883967;29;20028;-82
2022/06/22 12:31:01;;;;;;;2.97;1.08;;;;;;;;;;4869591;29;20033;-81
2022/06/22 12:33:27;;;;;;;3.08;1.25;;;;;;;;;;4865093;29;20037;-80
2022/06/22 12:36:07;;;;;;;2.10;0.90;;;;;;;;;;4890647;29;20103;-82
2022/06/22 12:38:39;;;;;;;1.95;1.13;;;;;;;;;;4903117;29;20077;-80
2022/06/22 12:41:05;;;;;;;4.68;1.10;;;;;;;;;;4865189;29;20037;-80
2022/06/22 12:43:52;;;;;;;3.92;1.25;;;;;;;;;;4894800;29;20032;-81
2022/06/22 12:46:18;;;;;;;3.20;1.13;;;;;;;;;;4883837;29;20454;-83
2022/06/22 12:48:44;;;;;;;2.50;0.98;;;;;;;;;;4883757;29;20116;-81
2022/06/22 12:51:17;;;;;;;1.40;0.80;;;;;;;;;;4883701;29;20075;-81
2022/06/22 12:54:04;;;;;;;1.90;1.05;;;;;;;;;;4900429;29;20046;-82
2022/06/22 12:56:37;;;;;;;2.17;0.93;;;;;;;;;;4883390;29;20115;-82
2022/06/22 12:59:10;;;;;;;1.77;0.90;;;;;;;;;;4896089;29;20125;-82
2022/06/22 13:01:37;;;;;;;1.70;0.70;;;;;;;;;;4867126;29;20036;-82
2022/06/22 13:04:09;;;;;;;2.30;1.00;;;;;;;;;;4883576;29;20486;-83
2022/06/22 13:06:37;;;;;;;1.88;1.00;;;;;;;;;;4883499;29;20053;-82
2022/06/22 13:09:05;;;;;;;3.83;1.23;;;;;;;;;;4900394;29;20032;-81
2022/06/22 13:11:32;;;;;;;1.80;0.90;;;;;;;;;;4899542;29;20029;-88
2022/06/22 13:14:01;;;;;;;3.15;1.13;;;;;;;;;;4902547;29;20076;-83
2022/06/22 13:16:30;;;;;;;3.80;1.20;;;;;;;;;;4902185;29;20028;-85
2022/06/22 13:18:56;;;;;;;1.73;0.95;;;;;;;;;;4918930;29;20035;-83
2022/06/22 13:21:28;;;;;;;2.22;0.90;;;;;;;;;;4882272;29;20036;-82
2022/06/22 13:24:13;;;;;;;4.22;1.10;;;;;;;;;;4877265;29;20075;-80
2022/06/22 13:26:48;;;;;;;5.80;1.20;;;;;;;;;;4876197;29;20055;-79
2022/06/22 13:29:20;;;;;;;4.65;1.40;;;;;;;;;;4870456;29;20037;-82
2022/06/22 13:31:48;;;;;;;1.85;0.95;;;;;;;;;;4872953;29;20043;-84
2022/06/22 13:34:16;;;;;;;2.60;1.10;;;;;;;;;;4883533;29;20037;-81
2022/06/22 13:36:54;;;;;;;2.33;0.90;;;;;;;;;;4864154;29;20021;-78
2022/06/22 13:39:30;;;;;;;2.53;1.00;;;;;;;;;;4882212;29;20120;-81
2022/06/22 13:42:14;;;;;;;4.18;1.20;;;;;;;;;;4882831;29;20031;-82
2022/06/22 13:44:59;;;;;;;2.08;1.02;;;;;;;;;;4882829;29;20032;-83
2022/06/22 13:47:28;;;;;;;3.42;1.20;;;;;;;;;;4899130;29;20044;-81
2022/06/22 13:52:43;;;;;;;3.90;1.10;;;;;;;;;;4899384;29;20047;-79
2022/06/22 13:55:18;;;;;;;2.50;1.10;;;;;;;;;;4882506;29;20020;-82
2022/06/22 13:57:53;;;;;;;3.00;1.10;;;;;;;;;;4887874;29;20033;-79
2022/06/22 14:00:22;;;;;;;1.80;1.17;;;;;;;;;;4881480;29;20043;-73
2022/06/22 14:02:56;;;;;;;6.15;1.20;;;;;;;;;;4877689;29;20032;-79
2022/06/22 14:05:25;;;;;;;5.57;1.10;;;;;;;;;;4890351;29;20052;-82
2022/06/22 14:07:57;;;;;;;2.13;1.00;;;;;;;;;;4873084;29;20469;-76
2022/06/22 14:10:26;;;;;;;4.05;1.00;;;;;;;;;;4873954;29;20433;-75
2022/06/22 14:12:54;;;;;;;3.05;1.27;;;;;;;;;;4892700;29;20028;-75
2022/06/22 14:15:29;;;;;;;3.45;1.10;;;;;;;;;;4901759;29;20033;-84
2022/06/22 14:18:14;;;;;;;6.40;1.35;;;;;;;;;;4883091;29;20482;-75
2022/06/22 14:20:40;;;;;;;2.95;1.00;;;;;;;;;;4882512;29;20043;-81
2022/06/22 14:23:09;;;;;;;3.35;1.27;;;;;;;;;;4898899;29;20479;-74
2022/06/22 14:25:49;;;;;;;3.63;1.10;;;;;;;;;;4882143;29;20040;-81
2022/06/22 14:28:18;;;;;;;2.70;1.42;;;;;;;;;;4899070;29;20478;-75
2022/06/22 14:30:50;;;;;;;2.28;1.00;;;;;;;;;;4882116;29;20025;-81
2022/06/22 14:33:18;;;;;;;3.67;1.38;;;;;;;;;;4881787;29;20405;-77
2022/06/22 14:35:47;;;;;;;4.45;1.20;;;;;;;;;;4898517;29;20434;-75
2022/06/22 14:38:17;;;;;;;1.80;1.10;;;;;;;;;;4876431;29;20032;-82
2022/06/22 14:41:02;;;;;;;4.65;1.40;;;;;;;;;;4867882;29;20045;-74
2022/06/22 14:43:35;;;;;;;2.28;1.17;;;;;;;;;;4868102;29;20132;-85
2022/06/22 14:46:01;;;;;;;;;;;;;;;;;;4871913;29;20036;-74
2022/06/22 14:48:32;;;;;;;3.13;1.20;;;;;;;;;;4863110;29;19940;-73
2022/06/22 14:51:08;;;;;;;2.15;1.20;;;;;;;;;;4873617;29;20032;-78
2022/06/22 14:53:53;;;;;;;2.55;1.38;;;;;;;;;;4864867;29;20039;-80
2022/06/22 14:56:37;;;;;;;3.05;1.30;;;;;;;;;;4879717;29;20059;-80
2022/06/22 14:59:22;;;;;;;3.35;1.35;;;;;;;;;;4862770;29;20036;-72
2022/06/22 15:01:55;;;;;;;2.72;1.30;;;;;;;;;;4862844;29;20025;-74
2022/06/22 15:04:29;;;;;;;2.28;1.00;;;;;;;;;;4881345;29;20029;-73
2022/06/22 15:07:14;;;;;;;4.15;1.35;;;;;;;;;;4864270;29;20049;-74
2022/06/22 15:09:40;;;;;;;2.55;1.35;;;;;;;;;;4862824;29;20487;-73
2022/06/22 15:14:57;;;;;;;5.25;1.63;;;;;;;;;;4880112;29;20051;-74
2022/06/22 15:17:32;;;;;;;2.65;1.35;;;;;;;;;;4883766;29;20056;-85
2022/06/22 15:20:22;;;;;;;4.00;1.30;;;;;;;;;;4882006;29;20387;-86
2022/06/22 15:22:51;;;;;;;3.90;1.60;;;;;;;;;;4874507;29;20048;-80
2022/06/22 15:25:43;;;;;;;3.83;1.40;;;;;;;;;;4872386;29;20096;-82
2022/06/22 15:28:24;;;;;;;3.28;1.60;;;;;;;;;;4869782;29;20033;-82
2022/06/22 15:31:01;;;;;;;4.20;1.85;;;;;;;;;;4880137;29;20175;-80
2022/06/22 15:33:33;;;;;;;3.97;1.50;;;;;;;;;;4886693;29;20029;-75
2022/06/22 15:36:03;;;;;;;3.03;1.35;;;;;;;;;;4886262;29;20036;-76
2022/06/22 15:38:37;;;;;;;4.80;1.50;;;;;;;;;;4878730;29;20027;-82
2022/06/22 15:41:06;;;;;;;5.45;1.95;;;;;;;;;;4887393;29;20040;-84
2022/06/22 15:43:51;;;;;;;2.55;1.20;;;;;;;;;;4893426;29;20107;-75
2022/06/22 15:46:24;;;;;;;3.10;1.30;;;;;;;;;;4883652;29;20115;-80